Time;durP1;ratioP1;P1;durP2;ratioP2;P2;SDS_P1;SDS_P2;PMS_P1;PMS_P2;Temp;Humidity;BMP_temperature;BMP_pressure;BME280_temperature;BME280_humidity;BME280_pressure;Samples;Min_cycle;Max_cycle;Signal;HPM_P1;HPM_P2
2021/03/24 00:01:49;;;;;;;38.35;16.90;;;;;;;4.56;61.01;99280.17;114998;1202;103628;-69
2021/03/24 00:04:16;;;;;;;43.50;17.65;;;;;;;4.56;60.56;99281.97;114961;1202;103009;-70
2021/03/24 00:06:43;;;;;;;39.87;17.70;;;;;;;4.54;61.10;99281.18;114965;1202;103114;-70
2021/03/24 00:09:14;;;;;;;43.37;18.60;;;;;;;4.54;60.70;99281.18;114947;1203;103095;-70
2021/03/24 00:11:41;;;;;;;38.57;17.13;;;;;;;4.54;60.77;99268.84;114969;1203;103047;-70
2021/03/24 00:14:08;;;;;;;41.40;17.45;;;;;;;4.54;61.41;99282.02;114991;1202;103255;-69
2021/03/24 00:16:35;;;;;;;41.50;18.15;;;;;;;4.56;60.91;99279.33;114969;1201;103085;-68
2021/03/24 00:19:03;;;;;;;43.68;18.20;;;;;;;4.55;61.37;99282.89;114965;1203;103142;-69
2021/03/24 00:21:30;;;;;;;41.65;18.10;;;;;;;4.54;61.12;99273.28;114978;1203;103152;-70
2021/03/24 00:23:57;;;;;;;42.57;17.43;;;;;;;4.53;61.00;99276.83;114964;1201;103066;-69
2021/03/24 00:26:24;;;;;;;42.90;18.00;;;;;;;4.52;61.30;99275.96;114911;1203;103073;-69
2021/03/24 00:28:53;;;;;;;44.00;18.95;;;;;;;4.52;61.22;99277.76;114910;1203;103066;-70
2021/03/24 00:31:22;;;;;;;44.23;20.17;;;;;;;4.52;61.18;99277.76;114953;1201;103066;-69
2021/03/24 00:33:49;;;;;;;50.33;21.50;;;;;;;4.51;61.13;99279.52;114971;1203;104668;-70
2021/03/24 00:36:18;;;;;;;54.95;23.65;;;;;;;4.52;61.22;99285.66;114975;1202;103143;-71
2021/03/24 00:38:45;;;;;;;60.30;23.57;;;;;;;4.51;61.25;99287.42;114949;1202;103232;-69
2021/03/24 00:41:12;;;;;;;50.87;22.83;;;;;;;4.51;61.33;99289.22;114951;1202;103124;-70
2021/03/24 00:43:39;;;;;;;52.50;22.45;;;;;;;4.50;61.11;99285.71;114982;1203;103072;-69
2021/03/24 00:46:06;;;;;;;55.10;21.95;;;;;;;4.50;61.01;99288.34;114817;1203;103069;-70
2021/03/24 00:48:34;;;;;;;46.03;19.73;;;;;;;4.49;61.17;99286.63;114780;1203;103111;-69
2021/03/24 00:51:04;;;;;;;49.90;19.20;;;;;;;4.49;61.62;99291.06;115693;1203;103235;-69
2021/03/24 00:53:31;;;;;;;40.17;18.97;;;;;;;4.47;61.41;99286.72;115177;1203;103068;-68
2021/03/24 00:55:59;;;;;;;40.40;16.70;;;;;;;4.47;61.37;99291.14;114967;1200;103066;-69
2021/03/24 00:58:26;;;;;;;40.10;17.03;;;;;;;4.47;61.87;99291.14;114896;1200;103065;-69
2021/03/24 01:00:53;;;;;;;36.97;16.40;;;;;;;4.46;61.51;99294.70;114928;1200;103034;-68
2021/03/24 01:03:21;;;;;;;40.20;17.00;;;;;;;4.45;61.15;99290.36;114955;1200;103043;-69
2021/03/24 01:05:50;;;;;;;36.88;16.00;;;;;;;4.42;61.81;99296.59;114982;1200;103507;-69
2021/03/24 01:08:21;;;;;;;36.77;16.13;;;;;;;4.41;61.67;99292.25;114979;1200;103063;-69
2021/03/24 01:10:49;;;;;;;33.70;15.45;;;;;;;4.37;61.60;99293.30;114936;1200;103035;-69
2021/03/24 01:13:19;;;;;;;33.15;13.90;;;;;;;4.33;61.53;99299.63;116146;1200;100803;-68
2021/03/24 01:15:46;;;;;;;34.03;15.10;;;;;;;4.30;61.81;99299.75;114922;1200;103188;-69
2021/03/24 01:18:16;;;;;;;34.90;14.55;;;;;;;4.27;61.31;99294.64;114915;1200;103109;-69
2021/03/24 01:20:45;;;;;;;32.65;14.10;;;;;;;4.25;61.91;99296.48;114974;1200;103038;-69
2021/03/24 01:23:14;;;;;;;31.10;13.33;;;;;;;4.25;61.78;99293.86;115005;1200;103565;-70
2021/03/24 01:25:41;;;;;;;32.43;15.50;;;;;;;4.24;61.30;99294.78;115028;1200;103150;-68
2021/03/24 01:28:18;;;;;;;28.90;13.93;;;;;;;4.22;61.92;99292.19;114982;1200;103033;-68
2021/03/24 01:30:46;;;;;;;31.40;14.73;;;;;;;4.21;62.01;99289.64;114946;1200;103062;-69
2021/03/24 01:33:14;;;;;;;31.53;14.43;;;;;;;4.19;61.95;99294.95;114875;1200;103180;-69
2021/03/24 01:35:42;;;;;;;31.50;14.87;;;;;;;4.20;62.10;99295.83;114983;1200;103101;-68
2021/03/24 01:38:09;;;;;;;30.65;14.50;;;;;;;4.16;61.56;99290.69;115008;1200;103065;-68
2021/03/24 01:40:41;;;;;;;30.27;14.10;;;;;;;4.14;61.44;99287.27;114912;1200;103244;-68
2021/03/24 01:43:22;;;;;;;29.50;14.10;;;;;;;4.14;61.77;99291.66;114946;1200;103063;-69
2021/03/24 01:45:52;;;;;;;31.95;14.40;;;;;;;4.12;61.78;99294.38;114956;1200;103183;-68
2021/03/24 01:48:19;;;;;;;32.37;15.53;;;;;;;4.10;61.81;99295.34;114963;1200;103136;-68
2021/03/24 01:50:47;;;;;;;34.33;15.10;;;;;;;4.07;61.89;99296.34;114966;1200;103063;-68
2021/03/24 01:53:18;;;;;;;33.43;15.27;;;;;;;4.04;61.42;99298.26;115021;1200;103267;-68
2021/03/24 01:55:46;;;;;;;35.77;15.53;;;;;;;4.04;61.98;99300.89;114978;1200;103031;-69
2021/03/24 01:58:13;;;;;;;31.45;15.10;;;;;;;4.04;61.62;99295.63;115025;1200;103174;-70
2021/03/24 02:00:49;;;;;;;31.70;15.00;;;;;;;4.02;61.84;99293.91;114981;1200;103182;-69
2021/03/24 02:03:21;;;;;;;32.70;15.20;;;;;;;4.01;61.74;99296.59;114991;1200;103075;-69
2021/03/24 02:05:49;;;;;;;30.87;15.07;;;;;;;4.01;61.94;99300.09;114970;1200;103139;-69
2021/03/24 02:08:26;;;;;;;35.23;16.87;;;;;;;3.99;62.05;99311.59;114979;1200;103139;-70
2021/03/24 02:10:58;;;;;;;34.43;16.00;;;;;;;3.97;62.17;99309.04;114996;1200;103529;-70
2021/03/24 02:13:34;;;;;;;32.20;15.33;;;;;;;3.96;61.53;99311.72;114963;1200;103181;-69
2021/03/24 02:16:09;;;;;;;32.33;14.33;;;;;;;3.92;61.76;99313.63;115003;1200;103076;-69
2021/03/24 02:18:37;;;;;;;32.30;14.57;;;;;;;3.88;61.82;99323.41;115007;1200;103187;-69
2021/03/24 02:21:12;;;;;;;31.37;14.77;;;;;;;3.88;62.39;99326.05;114968;1200;103150;-68
2021/03/24 02:23:40;;;;;;;30.80;15.57;;;;;;;3.87;62.02;99331.38;115025;1200;103060;-69
2021/03/24 02:26:20;;;;;;;32.43;14.93;;;;;;;3.85;62.18;99333.22;114961;1200;103526;-69
2021/03/24 02:28:52;;;;;;;33.70;16.30;;;;;;;3.84;61.88;99331.51;114999;1200;103130;-70
2021/03/24 02:31:22;;;;;;;34.05;16.10;;;;;;;3.83;62.57;99328.03;114985;1200;103178;-69
2021/03/24 02:33:53;;;;;;;33.75;14.65;;;;;;;3.82;61.95;99331.59;114892;1200;103085;-68
2021/03/24 02:36:22;;;;;;;29.15;13.50;;;;;;;3.82;62.41;99333.34;114904;1200;103072;-69
2021/03/24 02:38:52;;;;;;;32.97;14.30;;;;;;;3.82;62.41;99341.23;114912;1200;103145;-69
2021/03/24 02:41:20;;;;;;;30.75;13.10;;;;;;;3.81;62.60;99340.40;114947;1200;103040;-69
2021/03/24 02:43:49;;;;;;;33.00;14.00;;;;;;;3.81;61.97;99343.03;114930;1200;103196;-69
2021/03/24 02:46:18;;;;;;;32.10;14.23;;;;;;;3.80;62.07;99346.58;114908;1200;103197;-68
2021/03/24 02:48:46;;;;;;;41.47;16.33;;;;;;;3.79;62.38;99342.23;115022;1200;103124;-68
2021/03/24 02:51:18;;;;;;;31.53;14.63;;;;;;;3.80;61.98;99350.97;114958;1200;103136;-69
2021/03/24 02:54:05;;;;;;;32.60;16.30;;;;;;;3.77;62.12;99351.96;115019;1200;103059;-69
2021/03/24 02:56:33;;;;;;;35.20;16.07;;;;;;;3.78;62.60;99355.44;114988;1200;103139;-69
2021/03/24 02:59:01;;;;;;;33.67;15.33;;;;;;;3.73;62.36;99358.27;114958;1200;103018;-69
2021/03/24 03:01:38;;;;;;;32.63;15.63;;;;;;;3.70;61.93;99355.75;115041;1200;103079;-70
2021/03/24 03:04:15;;;;;;;30.23;15.07;;;;;;;3.68;62.54;99352.33;114992;1200;103036;-69
2021/03/24 03:06:44;;;;;;;34.07;13.77;;;;;;;3.68;62.02;99354.95;114988;1200;103127;-69
2021/03/24 03:09:26;;;;;;;31.07;14.27;;;;;;;3.66;62.26;99362.05;115011;1200;103069;-68
2021/03/24 03:12:04;;;;;;;29.50;13.20;;;;;;;3.63;62.09;99355.15;114989;1200;103158;-69
2021/03/24 03:14:59;;;;;;;31.90;13.55;;;;;;;3.63;62.50;99356.91;114978;1200;103137;-70
2021/03/24 03:17:44;;;;;;;29.43;14.20;;;;;;;3.62;62.55;99350.80;114926;1200;103059;-70
2021/03/24 03:20:12;;;;;;;30.67;13.93;;;;;;;3.62;62.49;99355.19;115023;1200;103145;-71
2021/03/24 03:22:45;;;;;;;33.00;14.30;;;;;;;3.60;62.45;99360.53;115006;1200;103139;-69
2021/03/24 03:25:31;;;;;;;30.50;13.73;;;;;;;3.61;62.21;99356.11;114951;1199;103086;-69
2021/03/24 03:28:03;;;;;;;32.73;14.10;;;;;;;3.61;62.71;99354.35;114961;1200;103034;-70
2021/03/24 03:30:34;;;;;;;34.10;14.27;;;;;;;3.60;61.92;99368.42;114924;1200;103082;-68
2021/03/24 03:33:05;;;;;;;29.70;14.47;;;;;;;3.61;62.80;99366.63;114957;1200;103070;-70
2021/03/24 03:35:36;;;;;;;31.90;14.60;;;;;;;3.61;62.53;99364.88;114934;1200;103216;-70
2021/03/24 03:38:06;;;;;;;29.50;13.80;;;;;;;3.60;61.77;99363.16;114973;1200;103130;-69
2021/03/24 03:40:36;;;;;;;26.87;12.67;;;;;;;3.56;62.47;99359.77;115014;1200;103034;-68
2021/03/24 03:43:07;;;;;;;33.15;12.40;;;;;;;3.53;62.16;99362.52;115008;1200;103085;-70
2021/03/24 03:45:39;;;;;;;28.00;12.23;;;;;;;3.52;62.56;99367.86;114987;1200;103037;-69
2021/03/24 03:48:09;;;;;;;25.80;12.33;;;;;;;3.51;62.85;99359.09;114981;1200;103072;-70
2021/03/24 03:50:38;;;;;;;31.70;12.40;;;;;;;3.51;62.55;99363.52;115009;1200;103041;-68
2021/03/24 03:53:17;;;;;;;28.83;12.73;;;;;;;3.50;62.34;99362.64;114987;1200;103088;-70
2021/03/24 03:55:55;;;;;;;31.50;13.20;;;;;;;3.52;62.79;99368.70;114932;1200;103571;-70
2021/03/24 03:58:47;;;;;;;33.27;12.83;;;;;;;3.50;62.42;99373.16;115006;1200;103075;-70
2021/03/24 04:01:29;;;;;;;29.27;13.03;;;;;;;3.48;62.41;99372.36;114920;1200;103153;-68
2021/03/24 04:04:15;;;;;;;30.70;12.90;;;;;;;3.46;62.22;99368.96;114866;1200;103063;-69
2021/03/24 04:06:52;;;;;;;26.75;11.80;;;;;;;3.44;61.95;99373.42;114896;1200;103139;-69
2021/03/24 04:09:20;;;;;;;24.10;10.37;;;;;;;3.41;62.37;99365.65;115018;1200;103514;-70
2021/03/24 04:11:53;;;;;;;29.00;10.77;;;;;;;3.41;62.08;99373.54;114977;1200;103015;-70
2021/03/24 04:14:28;;;;;;;26.50;10.97;;;;;;;3.40;62.12;99372.66;114999;1200;103037;-69
2021/03/24 04:16:55;;;;;;;25.70;11.35;;;;;;;3.38;62.42;99385.02;114954;1200;103076;-69
2021/03/24 04:19:28;;;;;;;25.93;11.20;;;;;;;3.37;61.87;99387.72;115013;1200;103142;-70
2021/03/24 04:22:00;;;;;;;24.80;11.10;;;;;;;3.31;62.18;99380.89;115022;1200;103052;-70
2021/03/24 04:24:34;;;;;;;25.10;10.50;;;;;;;3.28;62.27;99387.14;115000;1200;103049;-69
2021/03/24 04:27:03;;;;;;;25.87;10.50;;;;;;;3.27;62.21;99395.94;115010;1200;103033;-69
2021/03/24 04:29:39;;;;;;;24.70;9.93;;;;;;;3.24;61.91;99400.47;114988;1200;103152;-68
2021/03/24 04:32:10;;;;;;;24.65;10.25;;;;;;;3.24;61.80;99405.73;115007;1200;103072;-68
2021/03/24 04:34:39;;;;;;;28.83;11.20;;;;;;;3.25;62.22;99402.19;114955;1200;103072;-69
2021/03/24 04:37:31;;;;;;;25.65;9.55;;;;;;;3.21;62.13;99397.95;114927;1200;103068;-69
2021/03/24 04:40:15;;;;;;;26.60;11.00;;;;;;;3.19;62.10;99399.78;114898;1200;103174;-70
2021/03/24 04:43:02;;;;;;;23.75;9.75;;;;;;;3.18;62.21;99396.28;114944;1200;103086;-72
2021/03/24 04:45:50;;;;;;;25.53;10.60;;;;;;;3.20;61.92;99402.34;115031;1200;103031;-70
2021/03/24 04:48:22;;;;;;;29.30;11.40;;;;;;;3.20;61.81;99410.23;114946;1200;103146;-71
2021/03/24 04:51:01;;;;;;;29.05;11.10;;;;;;;3.20;61.99;99406.75;115044;1200;103136;-68
2021/03/24 04:53:37;;;;;;;28.83;11.70;;;;;;;3.20;62.33;99404.97;115006;1200;103215;-69
2021/03/24 04:56:06;;;;;;;24.03;10.80;;;;;;;3.18;61.74;99409.42;115003;1200;103171;-68
2021/03/24 04:58:38;;;;;;;25.87;10.67;;;;;;;3.16;61.73;99413.88;115043;1200;103114;-69
2021/03/24 05:01:50;;;;;;;25.40;10.43;;;;;;;3.19;61.84;99419.03;114948;1200;103520;-68
2021/03/24 05:04:23;;;;;;;30.55;10.15;;;;;;;3.19;62.38;99418.19;114857;1200;103046;-69
2021/03/24 05:06:56;;;;;;;28.55;11.55;;;;;;;3.20;61.86;99422.53;114980;1200;103358;-69
2021/03/24 05:09:23;;;;;;;26.40;11.30;;;;;;;3.18;61.81;99429.61;114982;1200;103065;-70
2021/03/24 05:12:11;;;;;;;29.20;12.00;;;;;;;3.17;61.61;99427.89;114976;1200;103066;-71
2021/03/24 05:15:24;;;;;;;28.90;10.80;;;;;;;3.19;62.14;99424.28;114958;1200;103081;-70
2021/03/24 05:17:54;;;;;;;32.23;11.53;;;;;;;3.24;61.90;99435.49;114985;1200;101730;-69
2021/03/24 05:20:39;;;;;;;25.77;12.00;;;;;;;3.27;62.00;99426.62;114965;1200;103165;-69
2021/03/24 05:23:14;;;;;;;31.00;12.53;;;;;;;3.28;62.23;99434.47;114902;1201;103107;-67
2021/03/24 05:26:06;;;;;;;28.45;12.45;;;;;;;3.32;61.67;99435.20;114959;1200;103094;-67
2021/03/24 05:28:47;;;;;;;31.15;12.25;;;;;;;3.34;62.00;99433.38;114943;1200;103069;-69
2021/03/24 05:31:19;;;;;;;31.73;13.50;;;;;;;3.30;61.60;99429.14;114933;1199;103062;-69
2021/03/24 05:34:03;;;;;;;32.10;14.50;;;;;;;3.31;61.74;99441.38;114912;1200;103158;-71
2021/03/24 05:36:36;;;;;;;36.17;15.03;;;;;;;3.35;61.17;99439.51;114955;1200;103152;-71
2021/03/24 05:39:28;;;;;;;35.98;16.23;;;;;;;3.39;62.04;99444.58;114917;1200;103097;-69
2021/03/24 05:42:13;;;;;;;37.55;16.00;;;;;;;3.42;61.37;99438.38;114934;1200;103067;-68
2021/03/24 05:44:46;;;;;;;36.43;16.30;;;;;;;3.46;61.88;99445.23;114952;1200;103072;-70
2021/03/24 05:47:34;;;;;;;38.67;18.20;;;;;;;3.50;61.46;99449.44;114962;1200;103219;-69
2021/03/24 05:50:32;;;;;;;35.90;17.70;;;;;;;3.53;61.52;99451.95;114931;1200;103065;-72
2021/03/24 05:54:02;;;;;;;40.67;19.47;;;;;;;3.57;61.91;99458.81;114907;1200;103033;-71
2021/03/24 05:56:47;;;;;;;38.50;19.10;;;;;;;3.64;61.90;99461.22;114642;1203;103230;-70
2021/03/24 05:59:23;;;;;;;36.50;18.85;;;;;;;3.66;61.16;99459.39;114636;1202;103211;-71
2021/03/24 06:01:57;;;;;;;36.90;18.40;;;;;;;3.73;61.75;99466.98;114882;1200;103270;-70
2021/03/24 06:04:52;;;;;;;33.70;16.80;;;;;;;3.80;61.47;99469.38;114942;1200;103099;-70
2021/03/24 06:07:47;;;;;;;39.90;18.47;;;;;;;3.86;61.67;99470.02;114997;1200;103143;-71
2021/03/24 06:10:33;;;;;;;37.27;16.50;;;;;;;3.88;61.92;99469.95;114914;1200;103036;-69
2021/03/24 06:13:15;;;;;;;37.03;17.63;;;;;;;3.87;61.60;99476.97;114905;1200;101432;-70
2021/03/24 06:15:53;;;;;;;36.27;16.37;;;;;;;3.86;61.10;99469.15;114934;1200;103292;-70
2021/03/24 06:18:37;;;;;;;40.97;17.27;;;;;;;3.84;61.74;99476.24;114876;1200;103078;-70
2021/03/24 06:21:12;;;;;;;36.80;16.90;;;;;;;3.79;61.28;99467.66;115006;1200;103145;-71
2021/03/24 06:24:17;;;;;;;33.15;14.35;;;;;;;3.78;61.69;99471.21;114983;1200;103041;-70
2021/03/24 06:27:24;;;;;;;37.85;14.25;;;;;;;3.77;61.59;99482.66;114995;1200;103066;-71
2021/03/24 06:30:06;;;;;;;30.83;13.00;;;;;;;3.73;61.06;99480.14;114957;1200;103034;-70
2021/03/24 06:33:08;;;;;;;30.23;11.50;;;;;;;3.74;61.46;99486.27;114936;1200;103152;-69
2021/03/24 06:36:08;;;;;;;27.70;11.17;;;;;;;3.68;61.42;99483.87;114963;1203;103075;-70
2021/03/24 06:38:49;;;;;;;27.80;10.03;;;;;;;3.65;60.67;99498.01;114930;1200;103107;-71
2021/03/24 06:41:35;;;;;;;24.90;10.43;;;;;;;3.62;61.03;99491.98;114943;1200;103069;-71
2021/03/24 06:44:23;;;;;;;24.53;10.30;;;;;;;3.59;61.01;99506.13;115005;1200;103152;-72
2021/03/24 06:47:02;;;;;;;25.83;10.07;;;;;;;3.58;60.60;99505.25;114939;1203;103530;-70
2021/03/24 06:49:36;;;;;;;25.20;9.90;;;;;;;3.56;60.92;99507.08;114969;1202;103085;-73
2021/03/24 06:52:27;;;;;;;27.67;11.00;;;;;;;3.55;60.87;99510.63;115001;1200;103146;-70
2021/03/24 06:55:35;;;;;;;25.15;10.95;;;;;;;3.57;61.02;99511.42;115004;1200;103514;-70
2021/03/24 06:58:28;;;;;;;27.55;11.50;;;;;;;3.64;60.82;99516.47;115007;1200;103095;-71
2021/03/24 07:01:23;;;;;;;30.77;11.33;;;;;;;3.65;60.64;99516.42;114811;1202;103598;-70
2021/03/24 07:04:21;;;;;;;27.87;11.10;;;;;;;3.69;60.35;99522.42;114916;1200;103085;-70
2021/03/24 07:07:07;;;;;;;26.97;11.63;;;;;;;3.74;60.52;99528.38;114917;1200;103072;-70
2021/03/24 07:10:08;;;;;;;28.73;11.07;;;;;;;3.78;60.48;99529.10;114838;1200;103066;-70
2021/03/24 07:13:12;;;;;;;30.97;12.00;;;;;;;3.84;60.41;99523.61;114848;1200;103111;-70
2021/03/24 07:16:24;;;;;;;29.10;11.15;;;;;;;3.88;60.80;99517.32;114879;1200;103095;-71
2021/03/24 07:19:13;;;;;;;31.13;12.07;;;;;;;3.90;60.77;99518.13;114953;1200;103070;-69
2021/03/24 07:22:05;;;;;;;28.83;10.97;;;;;;;3.95;60.80;99528.47;114932;1200;103067;-71
2021/03/24 07:25:01;;;;;;;26.40;9.80;;;;;;;4.00;60.80;99527.39;114916;1200;103063;-70
2021/03/24 07:28:11;;;;;;;21.00;8.37;;;;;;;4.06;60.44;99528.08;114891;1200;103028;-70
2021/03/24 07:31:14;;;;;;;22.03;7.93;;;;;;;4.13;60.71;99527.77;114916;1200;103147;-71
2021/03/24 07:34:02;;;;;;;20.87;7.40;;;;;;;4.21;60.57;99518.72;114890;1200;103129;-69
2021/03/24 07:36:51;;;;;;;19.50;6.60;;;;;;;4.27;60.41;99529.02;114870;1200;103139;-70
2021/03/24 07:39:50;;;;;;;17.60;6.77;;;;;;;4.29;59.71;99530.66;114905;1200;103536;-69
2021/03/24 07:42:47;;;;;;;13.50;5.45;;;;;;;4.38;59.49;99533.86;114941;1200;103236;-70
2021/03/24 07:45:26;;;;;;;18.03;6.73;;;;;;;4.57;60.11;99528.70;114947;1200;103239;-71
2021/03/24 07:47:55;;;;;;;18.85;5.20;;;;;;;4.97;59.78;99531.45;114946;1200;103086;-70
2021/03/24 07:51:01;;;;;;;16.30;5.40;;;;;;;5.69;59.49;99532.75;114915;1200;103155;-71
2021/03/24 07:54:01;;;;;;;17.37;4.83;;;;;;;6.23;59.55;99530.29;114993;1200;103165;-70
2021/03/24 07:56:35;;;;;;;14.93;4.93;;;;;;;6.63;59.74;99521.36;114988;1200;103491;-71
2021/03/24 07:59:12;;;;;;;16.05;4.90;;;;;;;7.08;59.39;99529.70;114876;1200;103749;-71
2021/03/24 08:01:45;;;;;;;15.50;5.40;;;;;;;8.03;58.79;99523.81;114807;1200;103130;-71
2021/03/24 08:04:49;;;;;;;15.75;5.10;;;;;;;8.56;58.79;99525.39;114771;1200;103082;-73
2021/03/24 08:07:39;;;;;;;19.30;6.10;;;;;;;8.89;59.28;99527.88;114782;1201;103166;-70
2021/03/24 08:10:32;;;;;;;12.50;4.30;;;;;;;9.44;59.01;99538.81;114871;1200;103178;-71
2021/03/24 08:14:02;;;;;;;12.20;4.60;;;;;;;11.43;58.05;99518.97;114852;1200;103181;-70
2021/03/24 08:17:04;;;;;;;16.97;5.13;;;;;;;13.35;58.02;99520.23;114854;1202;103198;-70
2021/03/24 08:19:56;;;;;;;13.93;5.30;;;;;;;15.10;58.07;99515.27;114736;1200;103261;-69
2021/03/24 08:22:47;;;;;;;11.85;4.90;;;;;;;16.32;57.57;99514.60;114912;1200;103136;-69
2021/03/24 08:25:22;;;;;;;11.80;4.00;;;;;;;17.39;57.53;99521.02;114911;1201;103107;-68
2021/03/24 08:28:03;;;;;;;12.93;5.00;;;;;;;18.48;57.72;99521.45;114856;1198;103140;-69
2021/03/24 08:30:50;;;;;;;13.90;4.95;;;;;;;19.31;57.29;99513.14;114903;1200;103133;-69
2021/03/24 08:33:38;;;;;;;10.87;4.77;;;;;;;19.74;57.61;99515.09;114843;1200;103046;-70
2021/03/24 08:36:27;;;;;;;11.65;4.80;;;;;;;20.40;57.48;99514.53;114906;1201;103059;-70
2021/03/24 08:39:18;;;;;;;12.70;4.85;;;;;;;21.10;57.89;99506.04;114880;1200;103105;-69
2021/03/24 08:42:16;;;;;;;22.47;9.97;;;;;;;21.67;57.70;99493.48;114867;1200;103175;-74
2021/03/24 08:44:52;;;;;;;15.10;5.87;;;;;;;22.06;57.01;99504.52;114945;1199;103111;-70
2021/03/24 08:47:27;;;;;;;13.40;5.50;;;;;;;22.30;56.60;99498.97;114934;1200;103175;-71
2021/03/24 08:49:59;;;;;;;14.00;5.20;;;;;;;22.55;56.72;99492.59;114936;1200;103133;-71
2021/03/24 08:53:06;;;;;;;12.83;5.50;;;;;;;22.94;56.66;99496.23;114906;1200;103189;-70
2021/03/24 08:55:51;;;;;;;11.93;4.77;;;;;;;22.91;56.17;99502.84;114956;1200;103165;-70
2021/03/24 08:58:36;;;;;;;14.35;5.30;;;;;;;22.82;55.42;99499.36;114901;1200;103091;-71
2021/03/24 09:01:59;;;;;;;9.40;4.57;;;;;;;22.98;55.42;99497.55;114895;1200;103059;-70
2021/03/24 09:04:41;;;;;;;12.73;5.00;;;;;;;23.00;55.24;99498.22;114552;1202;103294;-72
2021/03/24 09:07:08;;;;;;;11.17;4.17;;;;;;;23.21;55.38;99500.23;114979;1199;103127;-70
2021/03/24 09:10:08;;;;;;;12.00;5.27;;;;;;;23.16;55.09;99498.05;114917;1200;103196;-70
2021/03/24 09:12:47;;;;;;;12.07;4.87;;;;;;;22.81;55.03;99492.25;114907;1200;103072;-70
2021/03/24 09:15:21;;;;;;;9.33;4.60;;;;;;;22.71;54.08;99487.07;114934;1203;103153;-71
2021/03/24 09:18:03;;;;;;;10.30;4.20;;;;;;;22.28;53.59;99501.01;114928;1199;103245;-69
2021/03/24 09:20:48;;;;;;;8.50;4.60;;;;;;;21.90;53.57;99500.02;114891;1200;103065;-69
2021/03/24 09:23:40;;;;;;;20.77;12.20;;;;;;;21.47;52.58;99500.25;114913;1201;103139;-70
2021/03/24 09:26:39;;;;;;;19.80;9.70;;;;;;;21.18;52.80;99499.80;114954;1200;101833;-70
2021/03/24 09:29:45;;;;;;;11.57;5.20;;;;;;;21.20;52.64;99502.33;114915;1200;103069;-69
2021/03/24 09:32:34;;;;;;;11.80;4.97;;;;;;;21.39;52.35;99496.56;114749;1200;103223;-68
2021/03/24 09:35:02;;;;;;;10.40;4.70;;;;;;;21.33;51.67;99493.68;114922;1200;103113;-67
2021/03/24 09:37:39;;;;;;;9.83;4.53;;;;;;;21.39;51.43;99488.45;114906;1200;103129;-67
2021/03/24 09:40:12;;;;;;;12.50;4.90;;;;;;;21.37;51.24;99492.33;114959;1200;103197;-66
2021/03/24 09:42:51;;;;;;;;;;;;;;;21.12;50.03;99479.67;114759;1208;103194;-68
2021/03/24 09:45:33;;;;;;;12.60;4.75;;;;;;;20.71;50.43;99482.34;114832;1200;103127;-71
2021/03/24 09:48:17;;;;;;;10.77;4.80;;;;;;;20.63;49.36;99485.89;114896;1200;103133;-72
2021/03/24 09:51:11;;;;;;;13.10;5.00;;;;;;;20.16;49.61;99478.34;114838;1200;103121;-74
2021/03/24 09:53:42;;;;;;;14.28;4.35;;;;;;;19.83;49.67;99479.02;114878;1200;103098;-74
2021/03/24 09:56:21;;;;;;;8.75;3.90;;;;;;;19.06;48.31;99477.06;114868;1200;103067;-72
2021/03/24 09:59:07;;;;;;;11.15;5.00;;;;;;;18.26;48.73;99484.03;114881;1198;103156;-73
2021/03/24 10:01:54;;;;;;;11.10;4.40;;;;;;;17.88;48.96;99477.84;114902;1200;103085;-73
2021/03/24 10:04:49;;;;;;;8.57;3.80;;;;;;;17.60;48.93;99480.48;114853;1200;103490;-72
2021/03/24 10:07:23;;;;;;;8.67;3.60;;;;;;;17.33;48.34;99470.51;114934;1200;103517;-74
2021/03/24 10:09:54;;;;;;;10.75;4.85;;;;;;;16.91;48.00;99477.06;114927;1199;103129;-72
2021/03/24 10:12:31;;;;;;;8.60;3.90;;;;;;;16.63;48.23;99471.56;114854;1200;103148;-73
2021/03/24 10:15:13;;;;;;;10.63;3.83;;;;;;;16.50;47.91;99469.16;114865;1200;103072;-74
2021/03/24 10:18:11;;;;;;;8.23;3.60;;;;;;;16.39;48.26;99471.97;114829;1200;103104;-70
2021/03/24 10:20:55;;;;;;;8.33;3.80;;;;;;;16.30;48.11;99468.30;114741;1200;103038;-74
2021/03/24 10:23:27;;;;;;;9.63;4.05;;;;;;;15.76;47.58;99464.00;114802;1200;103079;-72
2021/03/24 10:26:14;;;;;;;8.35;3.50;;;;;;;15.57;47.44;99462.09;114881;1200;103141;-72
2021/03/24 10:28:57;;;;;;;32.97;18.00;;;;;;;15.54;47.46;99461.52;114851;1200;103075;-71
2021/03/24 10:31:44;;;;;;;17.33;6.73;;;;;;;15.58;47.37;99465.64;114818;1200;103136;-71
2021/03/24 10:34:38;;;;;;;11.93;4.50;;;;;;;15.45;47.06;99463.18;114896;1200;103139;-71
2021/03/24 10:37:08;;;;;;;10.80;4.33;;;;;;;15.35;46.90;99464.95;114916;1200;103203;-70
2021/03/24 10:39:51;;;;;;;13.37;5.13;;;;;;;15.20;46.51;99459.09;114929;1199;104690;-71
2021/03/24 10:42:29;;;;;;;10.60;4.10;;;;;;;14.94;46.28;99449.63;114925;1200;103041;-72
2021/03/24 10:45:22;;;;;;;9.33;3.67;;;;;;;14.81;46.35;99454.31;114910;1200;103111;-73
2021/03/24 10:48:30;;;;;;;8.95;3.75;;;;;;;14.77;46.12;99450.19;114863;1200;101172;-73
2021/03/24 10:51:06;;;;;;;7.70;3.40;;;;;;;14.76;46.14;99453.84;114821;1199;103140;-72
2021/03/24 10:53:34;;;;;;;7.10;3.63;;;;;;;14.74;45.83;99453.98;114888;1200;103130;-72
2021/03/24 10:56:26;;;;;;;12.60;4.80;;;;;;;14.61;45.59;99456.81;114909;1200;103374;-71
2021/03/24 10:59:33;;;;;;;18.70;6.95;;;;;;;14.42;45.67;99452.98;114884;1200;103255;-72
2021/03/24 11:02:32;;;;;;;12.60;4.37;;;;;;;14.49;45.34;99450.63;114887;1200;103066;-71
2021/03/24 11:05:23;;;;;;;12.40;4.60;;;;;;;14.55;45.46;99460.00;114820;1200;103206;-71
2021/03/24 11:08:18;;;;;;;8.40;3.43;;;;;;;14.53;45.21;99443.22;114900;1200;103075;-71
2021/03/24 11:11:14;;;;;;;17.00;6.23;;;;;;;14.50;44.97;99444.30;114851;1200;103139;-72
2021/03/24 11:13:50;;;;;;;8.53;3.57;;;;;;;14.48;44.78;99440.06;114551;1199;103130;-70
2021/03/24 11:16:27;;;;;;;11.03;3.53;;;;;;;14.31;44.65;99449.50;114765;1200;103059;-72
2021/03/24 11:19:18;;;;;;;8.63;3.90;;;;;;;14.24;44.68;99438.46;114896;1200;103076;-67
2021/03/24 11:22:23;;;;;;;9.77;3.63;;;;;;;14.25;44.96;99449.02;114831;1200;103072;-72
2021/03/24 11:25:19;;;;;;;7.60;3.20;;;;;;;14.17;44.58;99442.61;114904;1200;103118;-72
2021/03/24 11:27:56;;;;;;;9.90;3.30;;;;;;;13.96;44.54;99430.86;114870;1200;103197;-69
2021/03/24 11:30:36;;;;;;;10.27;3.63;;;;;;;13.75;44.09;99432.58;114864;1199;103031;-72
2021/03/24 11:33:52;;;;;;;11.93;3.83;;;;;;;13.52;44.10;99438.78;114902;1200;103139;-71
2021/03/24 11:36:25;;;;;;;10.13;3.30;;;;;;;13.37;44.00;99439.98;114632;1203;103235;-70
2021/03/24 11:39:14;;;;;;;9.00;3.70;;;;;;;13.36;44.32;99428.43;114614;1203;103037;-72
2021/03/24 11:41:45;;;;;;;10.00;3.60;;;;;;;13.24;44.02;99424.07;114806;1200;103098;-73
2021/03/24 11:44:20;;;;;;;8.50;3.40;;;;;;;13.17;43.99;99431.70;114855;1200;103111;-71
2021/03/24 11:46:47;;;;;;;7.67;3.00;;;;;;;13.05;44.00;99420.16;114852;1200;103095;-71
2021/03/24 11:49:39;;;;;;;32.97;14.23;;;;;;;12.94;43.73;99426.33;114930;1200;103075;-71
2021/03/24 11:52:15;;;;;;;11.40;3.90;;;;;;;12.84;43.65;99417.31;114852;1200;103127;-69
2021/03/24 11:54:48;;;;;;;10.37;3.57;;;;;;;12.86;43.75;99420.72;114839;1200;103523;-71
2021/03/24 11:57:40;;;;;;;14.35;4.30;;;;;;;12.85;43.69;99408.34;114917;1200;103060;-71
2021/03/24 12:00:41;;;;;;;12.00;3.70;;;;;;;12.75;43.53;99408.20;114851;1200;103139;-70
2021/03/24 12:03:26;;;;;;;7.47;3.37;;;;;;;12.82;43.56;99413.91;114874;1200;103069;-73
2021/03/24 12:06:16;;;;;;;11.73;3.40;;;;;;;12.81;43.22;99406.88;114915;1200;103210;-71
2021/03/24 12:08:43;;;;;;;9.97;3.87;;;;;;;12.76;43.19;99403.70;114821;1200;103214;-72
2021/03/24 12:11:24;;;;;;;8.83;3.68;;;;;;;12.64;43.10;99397.48;114949;1199;103146;-72
2021/03/24 12:14:37;;;;;;;10.50;3.60;;;;;;;12.62;43.09;99394.08;114867;1199;103069;-71